Terminal Aerodrome Forecast
Issued by NWS Tulsa, OK

Home | Current Version | Previous Version | Text Only | Print | Product List | Glossary On
Versions: 1 2 3 4 5 6 7 8 9 10 11 12 13 14
000
FTUS44 KTSA 161100
TAFFSM
TAF
KFSM 161120Z 1612/1712 08007KT P6SM SCT250 WS020/18040KT
     FM161500 13010KT P6SM SCT250
     FM161700 16014G21KT P6SM SCT250
     FM170100 14005KT P6SM SCT250
     FM170600 08004KT P6SM BKN250=

USA.gov is the U.S. government's official web portal to all federal, state and local government web resources and services.